Arch Cape, Oregon
Current Conditions -  °F | °C
As of 6:55 PM on Monday 22 Dec 2014 (Local Time) from KAST Reporting Station
Overcast Overcast  
Wind Chill:   Ceiling: 10000
Heat Index:   Visibility: 10mi
Dew Point:   Wind: 7mph
Humidity: 89%   Direction: NA
Pressure: 30.3"   Gusts: NA
Location:  45.8°N, 123.96°W
Report Text: KAST 230255Z AUTO VRB06KT 10SM OVC100 09/07 A3030 RMK AO2 SLP259 T00890072 58013
Loading
Personal Weather Stations






























Interactive Weather Map New forecast layout! Learn more

10-Day Weather Forecast

Advertisements
Track Severe Weather on mobile